Time;durP1;ratioP1;P1;durP2;ratioP2;P2;SDS_P1;SDS_P2;PMS_P1;PMS_P2;Temp;Humidity;BMP_temperature;BMP_pressure;BME280_temperature;BME280_humidity;BME280_pressure;Samples;Min_cycle;Max_cycle;Signal;HPM_P1;HPM_P2
2022/04/13 00:02:04;;;;;;;12.85;8.23;;;13.80;99.90;;;;;;5111848;28;20039;-66
2022/04/13 00:04:30;;;;;;;14.00;8.15;;;13.80;99.90;;;;;;5111905;28;20036;-67
2022/04/13 00:06:56;;;;;;;14.27;8.43;;;13.70;99.90;;;;;;5111901;28;20039;-67
2022/04/13 00:09:21;;;;;;;13.65;7.70;;;13.70;99.90;;;;;;5111344;28;20111;-66
2022/04/13 00:11:47;;;;;;;13.32;8.20;;;13.70;99.90;;;;;;5111594;28;20078;-67
2022/04/13 00:14:12;;;;;;;12.00;7.60;;;13.60;99.90;;;;;;5093322;28;20047;-66
2022/04/13 00:16:39;;;;;;;12.63;7.50;;;13.50;99.90;;;;;;5111752;28;20067;-66
2022/04/13 00:19:05;;;;;;;16.20;8.05;;;13.50;99.90;;;;;;5111354;28;20039;-66
2022/04/13 00:21:30;;;;;;;16.10;7.90;;;13.40;99.90;;;;;;5111467;28;20506;-66
2022/04/13 00:23:59;;;;;;;12.15;7.85;;;13.40;99.90;;;;;;5111523;28;20423;-67
2022/04/13 00:26:25;;;;;;;10.35;7.85;;;13.40;99.90;;;;;;5111431;28;20081;-67
2022/04/13 00:28:50;;;;;;;15.80;8.15;;;13.40;99.90;;;;;;5111084;28;20068;-66
2022/04/13 00:31:16;;;;;;;11.10;7.38;;;13.40;99.90;;;;;;5111650;28;20035;-66
2022/04/13 00:33:41;;;;;;;13.20;8.20;;;13.40;99.90;;;;;;5111446;28;20039;-67
2022/04/13 00:36:07;;;;;;;13.65;7.72;;;13.40;99.90;;;;;;5111495;28;20496;-66
2022/04/13 00:38:33;;;;;;;13.27;7.85;;;13.40;99.90;;;;;;5111088;28;20051;-67
2022/04/13 00:40:59;;;;;;;13.55;8.25;;;13.40;99.90;;;;;;5111333;28;20470;-66
2022/04/13 00:43:24;;;;;;;12.18;8.05;;;13.40;99.90;;;;;;5096984;28;20050;-67
2022/04/13 00:45:51;;;;;;;11.63;8.13;;;13.40;99.90;;;;;;5115650;28;20118;-66
2022/04/13 00:48:29;;;;;;;10.57;7.97;;;13.50;99.90;;;;;;5115477;28;20053;-66
2022/04/13 00:50:54;;;;;;;11.23;7.93;;;13.50;99.90;;;;;;5115504;28;20042;-66
2022/04/13 00:53:23;;;;;;;13.27;8.20;;;13.50;99.90;;;;;;5115375;28;20036;-66
2022/04/13 00:55:53;;;;;;;13.30;8.30;;;13.50;99.90;;;;;;5115278;28;20484;-66
2022/04/13 00:58:22;;;;;;;12.23;8.48;;;13.50;99.90;;;;;;5079907;28;20063;-67
2022/04/13 01:00:49;;;;;;;13.13;9.23;;;13.40;99.90;;;;;;5114997;28;20043;-66
2022/04/13 01:03:19;;;;;;;14.27;9.15;;;13.40;99.90;;;;;;5115113;28;20040;-66
2022/04/13 01:05:48;;;;;;;13.02;8.88;;;13.40;99.90;;;;;;5115192;28;20050;-66
2022/04/13 01:08:15;;;;;;;13.57;9.50;;;13.40;99.90;;;;;;5115035;28;20040;-67
2022/04/13 01:10:42;;;;;;;15.13;8.85;;;13.30;99.90;;;;;;5114839;28;20035;-66
2022/04/13 01:13:08;;;;;;;13.85;9.45;;;13.30;99.90;;;;;;5115121;28;20046;-66
2022/04/13 01:15:34;;;;;;;12.60;9.23;;;13.30;99.90;;;;;;5115203;28;20122;-66
2022/04/13 01:18:01;;;;;;;14.93;9.07;;;13.30;99.90;;;;;;5115090;28;20051;-67
2022/04/13 01:20:27;;;;;;;10.55;8.05;;;13.20;99.90;;;;;;5114653;28;20047;-66
2022/04/13 01:22:52;;;;;;;12.07;9.05;;;13.20;99.90;;;;;;5114647;28;20040;-66
2022/04/13 01:25:18;;;;;;;11.68;9.20;;;13.20;99.90;;;;;;5115047;28;20088;-66
2022/04/13 01:27:43;;;;;;;15.35;9.15;;;13.20;99.90;;;;;;5114980;28;20499;-66
2022/04/13 01:30:11;;;;;;;12.80;9.48;;;13.20;99.90;;;;;;5096386;28;20116;-67
2022/04/13 01:32:36;;;;;;;13.85;9.18;;;13.20;99.90;;;;;;5114543;28;20051;-66
2022/04/13 01:35:02;;;;;;;16.17;9.02;;;13.20;99.90;;;;;;5114671;28;20047;-67
2022/04/13 01:37:28;;;;;;;12.15;9.45;;;13.10;99.90;;;;;;5114578;28;20047;-67
2022/04/13 01:39:54;;;;;;;17.13;9.70;;;13.10;99.90;;;;;;5114155;28;20040;-66
2022/04/13 01:42:20;;;;;;;16.05;10.02;;;13.10;99.90;;;;;;5079117;28;20046;-67
2022/04/13 01:44:46;;;;;;;12.55;10.13;;;13.10;99.90;;;;;;5114654;28;20491;-67
2022/04/13 01:47:11;;;;;;;14.00;8.98;;;13.00;99.90;;;;;;5114444;28;20088;-67
2022/04/13 01:49:37;;;;;;;16.55;8.75;;;13.00;99.90;;;;;;5114107;28;20039;-67
2022/04/13 01:52:08;;;;;;;18.40;8.35;;;12.90;99.90;;;;;;5114036;28;20051;-66
2022/04/13 01:54:34;;;;;;;12.55;8.73;;;12.90;99.90;;;;;;5114442;28;20043;-67
2022/04/13 01:57:00;;;;;;;21.08;9.38;;;12.80;99.90;;;;;;5114388;28;20035;-66
2022/04/13 01:59:26;;;;;;;15.63;9.88;;;12.80;99.90;;;;;;5113951;28;20040;-67
2022/04/13 02:01:51;;;;;;;14.60;9.55;;;12.70;99.90;;;;;;5114008;28;20031;-67
2022/04/13 02:04:22;;;;;;;16.48;9.95;;;12.60;99.90;;;;;;5114133;28;20040;-66
2022/04/13 02:06:48;;;;;;;14.45;9.40;;;12.60;99.90;;;;;;5095725;28;20076;-67
2022/04/13 02:09:15;;;;;;;13.52;9.15;;;12.60;99.90;;;;;;5113858;28;20032;-67
2022/04/13 02:11:40;;;;;;;10.98;9.10;;;12.50;99.90;;;;;;5113984;28;20035;-66
2022/04/13 02:14:06;;;;;;;18.60;10.43;;;12.50;99.90;;;;;;5113945;28;20514;-66
2022/04/13 02:16:32;;;;;;;15.75;9.98;;;12.40;99.90;;;;;;5113788;28;20039;-66
2022/04/13 02:18:57;;;;;;;14.95;9.68;;;12.40;99.90;;;;;;5113488;28;20465;-67
2022/04/13 02:21:23;;;;;;;14.85;10.25;;;12.30;99.90;;;;;;5113529;28;20035;-67
2022/04/13 02:23:48;;;;;;;14.23;9.80;;;12.30;99.90;;;;;;5113701;28;20040;-66
2022/04/13 02:26:14;;;;;;;15.32;9.82;;;12.30;99.90;;;;;;5113795;28;20036;-66
2022/04/13 02:28:42;;;;;;;18.20;10.82;;;12.30;99.90;;;;;;5113346;28;20036;-66
2022/04/13 02:31:07;;;;;;;13.35;9.95;;;12.20;99.90;;;;;;5113531;28;20043;-66
2022/04/13 02:33:33;;;;;;;15.48;10.20;;;12.20;99.90;;;;;;5113453;28;20039;-66
2022/04/13 02:35:59;;;;;;;17.98;10.27;;;12.10;99.90;;;;;;5113321;28;20460;-67
2022/04/13 02:38:25;;;;;;;14.50;9.68;;;12.10;99.90;;;;;;5094905;28;20122;-67
2022/04/13 02:40:51;;;;;;;18.42;10.50;;;12.10;99.90;;;;;;5113539;28;20040;-66
2022/04/13 02:43:17;;;;;;;15.77;10.15;;;12.10;99.90;;;;;;5113388;28;20047;-66
2022/04/13 02:45:42;;;;;;;17.75;9.98;;;12.10;99.90;;;;;;5113324;28;20040;-66
2022/04/13 02:48:08;;;;;;;17.35;10.82;;;12.10;99.90;;;;;;5113183;28;20040;-66
2022/04/13 02:50:34;;;;;;;16.10;9.73;;;12.10;99.90;;;;;;5112837;28;20476;-66
2022/04/13 02:53:00;;;;;;;14.60;10.80;;;12.10;99.90;;;;;;5112990;28;20724;-66
2022/04/13 02:55:25;;;;;;;16.90;11.77;;;12.10;99.90;;;;;;5113231;28;20130;-66
2022/04/13 02:57:51;;;;;;;16.52;10.50;;;12.10;99.90;;;;;;5113182;28;20148;-66
2022/04/13 03:00:18;;;;;;;13.57;10.05;;;12.00;99.90;;;;;;5112656;28;20040;-66
2022/04/13 03:02:44;;;;;;;18.35;10.65;;;12.00;99.90;;;;;;5112842;28;20039;-66
2022/04/13 03:05:10;;;;;;;13.55;10.35;;;12.00;99.90;;;;;;5112193;28;20035;-66
2022/04/13 03:07:36;;;;;;;16.63;9.82;;;11.90;99.90;;;;;;5113046;28;20096;-66
2022/04/13 03:10:03;;;;;;;16.63;10.15;;;11.90;99.90;;;;;;5112388;28;20036;-66
2022/04/13 03:12:29;;;;;;;23.00;10.73;;;11.80;99.90;;;;;;5112622;28;20491;-66
2022/04/13 03:14:55;;;;;;;15.95;10.05;;;11.80;99.90;;;;;;5094399;28;20043;-66
2022/04/13 03:17:21;;;;;;;20.33;9.70;;;11.80;99.90;;;;;;5112654;28;20071;-66
2022/04/13 03:19:46;;;;;;;18.05;10.02;;;11.70;99.90;;;;;;5112238;28;20469;-67
2022/04/13 03:22:12;;;;;;;14.23;10.25;;;11.70;99.90;;;;;;5112550;28;20053;-66
2022/04/13 03:24:37;;;;;;;14.18;9.93;;;11.70;99.90;;;;;;5112681;28;20070;-67
2022/04/13 03:27:03;;;;;;;14.88;9.75;;;11.70;99.90;;;;;;5112558;28;20119;-66
2022/04/13 03:29:29;;;;;;;19.40;10.40;;;11.70;99.90;;;;;;5112175;28;20035;-66
2022/04/13 03:31:54;;;;;;;13.25;9.85;;;11.60;99.90;;;;;;5112324;28;20040;-66
2022/04/13 03:34:20;;;;;;;15.80;10.25;;;11.60;99.90;;;;;;5112286;28;20551;-66
2022/04/13 03:36:49;;;;;;;16.70;10.85;;;11.50;99.90;;;;;;5112500;28;20031;-67
2022/04/13 03:39:16;;;;;;;15.32;9.95;;;11.60;99.90;;;;;;5112187;28;20031;-66
2022/04/13 03:41:42;;;;;;;16.95;10.98;;;11.60;99.90;;;;;;5093916;28;20043;-66
2022/04/13 03:44:08;;;;;;;14.70;10.20;;;11.60;99.90;;;;;;5093914;28;20040;-66
2022/04/13 03:46:33;;;;;;;17.52;10.20;;;11.60;99.90;;;;;;5094061;28;20069;-67
2022/04/13 03:48:59;;;;;;;17.15;10.13;;;11.60;99.90;;;;;;5111718;28;20063;-66
2022/04/13 03:51:25;;;;;;;21.75;10.70;;;11.50;99.90;;;;;;5112101;28;20040;-66
2022/04/13 03:53:50;;;;;;;16.70;10.88;;;11.50;99.90;;;;;;5111862;28;20500;-67
2022/04/13 03:56:16;;;;;;;14.93;10.25;;;11.50;99.90;;;;;;5112035;28;20039;-67
2022/04/13 03:58:42;;;;;;;15.02;10.27;;;11.50;99.90;;;;;;5111501;28;20040;-67
2022/04/13 04:01:08;;;;;;;15.70;10.10;;;11.50;99.90;;;;;;5111843;28;20118;-66
2022/04/13 04:03:35;;;;;;;14.13;10.35;;;11.50;99.90;;;;;;5111507;28;20039;-66
2022/04/13 04:06:01;;;;;;;21.45;10.63;;;11.50;99.90;;;;;;5093484;28;20067;-66
2022/04/13 04:08:28;;;;;;;14.93;10.43;;;11.50;99.90;;;;;;5111533;28;20040;-67
2022/04/13 04:10:54;;;;;;;19.38;11.38;;;11.50;99.90;;;;;;5076522;28;20039;-66
2022/04/13 04:13:20;;;;;;;14.55;10.30;;;11.60;99.90;;;;;;5111541;28;20613;-67
2022/04/13 04:15:45;;;;;;;15.35;10.95;;;11.60;99.90;;;;;;5110946;28;20055;-66
2022/04/13 04:18:11;;;;;;;19.13;11.07;;;11.60;99.90;;;;;;5111350;28;20527;-67
2022/04/13 04:20:37;;;;;;;17.50;10.35;;;11.50;99.90;;;;;;5111401;28;20051;-66
2022/04/13 04:23:03;;;;;;;17.30;10.93;;;11.60;99.90;;;;;;5093174;28;20051;-67
2022/04/13 04:25:29;;;;;;;20.38;10.35;;;11.50;99.90;;;;;;5111434;28;20407;-67
2022/04/13 04:27:55;;;;;;;19.02;11.52;;;11.50;99.90;;;;;;5111490;28;20040;-67
2022/04/13 04:30:20;;;;;;;13.90;10.50;;;11.50;99.90;;;;;;5111689;28;20039;-66
2022/04/13 04:32:46;;;;;;;17.23;10.48;;;11.40;99.90;;;;;;5111252;28;20061;-66
2022/04/13 04:35:11;;;;;;;19.48;10.90;;;11.40;99.90;;;;;;5111477;28;20040;-67
2022/04/13 04:37:37;;;;;;;19.10;11.48;;;11.30;99.90;;;;;;5111434;28;20035;-67
2022/04/13 04:40:03;;;;;;;16.73;10.07;;;11.30;99.90;;;;;;5110968;28;20047;-66
2022/04/13 04:42:29;;;;;;;21.67;11.18;;;11.30;99.90;;;;;;5111211;28;20036;-67
2022/04/13 04:44:58;;;;;;;14.82;11.05;;;11.30;99.90;;;;;;5093058;28;20058;-67
2022/04/13 04:47:25;;;;;;;18.20;11.73;;;11.20;99.90;;;;;;5107946;28;20031;-66
2022/04/13 04:49:52;;;;;;;22.17;11.40;;;11.20;99.90;;;;;;5109636;28;20404;-66
2022/04/13 04:52:18;;;;;;;20.67;11.45;;;11.20;99.90;;;;;;5110661;28;20032;-66
2022/04/13 04:54:43;;;;;;;19.27;11.00;;;11.20;99.90;;;;;;5110236;28;20050;-66
2022/04/13 04:57:09;;;;;;;17.00;12.20;;;11.10;99.90;;;;;;5093056;28;20408;-66
2022/04/13 04:59:35;;;;;;;18.45;11.60;;;11.10;99.90;;;;;;5110841;28;20107;-66
2022/04/13 05:02:01;;;;;;;16.85;10.77;;;11.00;99.90;;;;;;5092836;28;20094;-66
2022/04/13 05:04:26;;;;;;;14.88;10.25;;;10.90;99.90;;;;;;5111441;28;20380;-66
2022/04/13 05:06:52;;;;;;;15.05;11.00;;;10.90;99.90;;;;;;5093148;28;20043;-66
2022/04/13 05:09:18;;;;;;;17.58;11.32;;;10.90;99.90;;;;;;5110822;28;20073;-66
2022/04/13 05:11:45;;;;;;;15.82;11.23;;;11.00;99.90;;;;;;5110959;28;20049;-66
2022/04/13 05:14:10;;;;;;;17.33;10.15;;;11.00;99.90;;;;;;5110990;28;20412;-67
2022/04/13 05:16:36;;;;;;;14.80;10.77;;;11.00;99.90;;;;;;5092988;28;20039;-67
2022/04/13 05:19:02;;;;;;;14.90;10.93;;;10.90;99.90;;;;;;5110791;28;20039;-67
2022/04/13 05:21:27;;;;;;;15.15;11.90;;;10.90;99.90;;;;;;5110897;28;20038;-67
2022/04/13 05:23:53;;;;;;;19.63;10.50;;;11.00;99.90;;;;;;5110868;28;20048;-66
2022/04/13 05:26:19;;;;;;;17.83;10.80;;;11.00;99.90;;;;;;5110948;28;20479;-67
2022/04/13 05:28:47;;;;;;;18.50;11.88;;;11.00;99.90;;;;;;5095165;28;20046;-66
2022/04/13 05:31:13;;;;;;;16.95;10.82;;;11.00;99.90;;;;;;5096643;28;20123;-66
2022/04/13 05:33:39;;;;;;;19.23;12.25;;;11.10;99.90;;;;;;5096371;28;20118;-67
2022/04/13 05:36:05;;;;;;;17.55;12.23;;;11.20;99.90;;;;;;5114775;28;20063;-66
2022/04/13 05:38:30;;;;;;;22.42;12.57;;;11.20;99.90;;;;;;5096199;28;20396;-66
2022/04/13 05:40:56;;;;;;;24.10;15.10;;;11.30;99.90;;;;;;5114548;28;20167;-66
2022/04/13 05:43:21;;;;;;;21.02;14.00;;;11.40;99.90;;;;;;5114255;28;20043;-67
2022/04/13 05:45:47;;;;;;;30.42;15.73;;;11.40;99.90;;;;;;5114668;28;20032;-66
2022/04/13 05:48:12;;;;;;;26.23;15.68;;;11.50;99.90;;;;;;5114479;28;20445;-67
2022/04/13 05:50:38;;;;;;;28.00;16.02;;;11.50;99.90;;;;;;5114006;28;20515;-66
2022/04/13 05:53:04;;;;;;;22.77;13.98;;;11.60;99.90;;;;;;5114385;28;20555;-67
2022/04/13 05:55:29;;;;;;;18.63;13.13;;;11.70;99.90;;;;;;5114255;28;20114;-67
2022/04/13 05:57:56;;;;;;;27.30;13.95;;;11.80;99.90;;;;;;5096088;28;20496;-67
2022/04/13 06:00:22;;;;;;;21.13;13.93;;;11.80;99.90;;;;;;5113829;28;20047;-67
2022/04/13 06:02:47;;;;;;;18.95;14.05;;;11.90;99.90;;;;;;5114115;28;20043;-67
2022/04/13 06:05:13;;;;;;;21.48;13.48;;;12.00;99.90;;;;;;5114024;28;20368;-67
2022/04/13 06:07:40;;;;;;;23.33;13.32;;;12.00;99.90;;;;;;5114142;28;20036;-67
2022/04/13 06:10:06;;;;;;;23.52;12.73;;;12.10;99.90;;;;;;5094294;28;20048;-67
2022/04/13 06:12:32;;;;;;;24.13;13.95;;;12.20;99.90;;;;;;5112218;28;20047;-67
2022/04/13 06:15:06;;;;;;;21.75;14.85;;;12.20;99.90;;;;;;5112963;28;20047;-67
2022/04/13 06:17:31;;;;;;;23.10;13.45;;;12.30;99.90;;;;;;5094788;28;20040;-67
2022/04/13 06:19:57;;;;;;;19.30;13.60;;;12.30;99.90;;;;;;5113162;28;20039;-67
2022/04/13 06:22:22;;;;;;;22.95;13.57;;;12.40;99.90;;;;;;5112711;28;20050;-66
2022/04/13 06:24:51;;;;;;;22.63;13.63;;;12.50;99.90;;;;;;5112879;28;20047;-67
2022/04/13 06:27:20;;;;;;;20.58;13.55;;;12.50;99.90;;;;;;5112681;28;20126;-67
2022/04/13 06:29:46;;;;;;;21.00;13.68;;;12.60;99.90;;;;;;5094223;28;20039;-67
2022/04/13 06:32:13;;;;;;;25.50;14.10;;;12.60;99.90;;;;;;5112596;28;20047;-67
2022/04/13 06:34:39;;;;;;;21.20;14.10;;;12.70;99.90;;;;;;5094735;28;20074;-67
2022/04/13 06:37:04;;;;;;;23.98;14.48;;;12.80;99.90;;;;;;5113368;28;20048;-67
2022/04/13 06:39:30;;;;;;;25.02;14.25;;;12.90;99.90;;;;;;5112019;28;20043;-67
2022/04/13 06:41:56;;;;;;;18.92;14.57;;;13.00;99.90;;;;;;5094870;28;20053;-67
2022/04/13 06:44:21;;;;;;;22.92;14.18;;;13.00;99.90;;;;;;5113208;28;20127;-66
2022/04/13 06:46:47;;;;;;;20.60;14.00;;;13.10;99.90;;;;;;5113460;28;20036;-66
2022/04/13 06:49:13;;;;;;;22.05;14.43;;;13.10;99.90;;;;;;5113047;28;20499;-67
2022/04/13 06:51:38;;;;;;;22.75;14.02;;;13.20;99.90;;;;;;5113019;28;20387;-67
2022/04/13 06:54:04;;;;;;;23.83;13.77;;;13.20;99.90;;;;;;5113125;28;20048;-66
2022/04/13 06:56:32;;;;;;;19.70;12.55;;;13.10;99.90;;;;;;5113047;28;20050;-67
2022/04/13 06:58:58;;;;;;;21.80;13.15;;;13.20;99.90;;;;;;5112625;28;20491;-67
2022/04/13 07:01:23;;;;;;;23.02;13.05;;;13.20;99.90;;;;;;5094910;28;20044;-66
2022/04/13 07:03:49;;;;;;;21.00;12.85;;;13.20;99.90;;;;;;5112889;28;20036;-66
2022/04/13 07:06:15;;;;;;;26.80;13.68;;;13.30;99.90;;;;;;5109867;28;20150;-66
2022/04/13 07:08:41;;;;;;;22.35;12.13;;;13.40;99.90;;;;;;5100864;28;20082;-67
2022/04/13 07:11:06;;;;;;;24.73;13.88;;;13.50;99.90;;;;;;5095136;28;20040;-66
2022/04/13 07:13:32;;;;;;;21.33;13.18;;;13.60;99.90;;;;;;5092516;28;20644;-67
2022/04/13 07:15:57;;;;;;;20.00;11.98;;;13.70;99.90;;;;;;5092475;28;20032;-67
2022/04/13 07:18:23;;;;;;;23.45;12.45;;;13.70;99.90;;;;;;5073937;28;20055;-72
2022/04/13 07:20:49;;;;;;;17.67;10.32;;;13.80;99.90;;;;;;5079368;28;20119;-72
2022/04/13 07:23:14;;;;;;;18.30;11.43;;;13.90;99.90;;;;;;5092138;28;20050;-71
2022/04/13 07:25:40;;;;;;;17.80;10.57;;;14.00;99.90;;;;;;5092504;28;20038;-71
2022/04/13 07:28:06;;;;;;;13.90;9.00;;;14.10;99.90;;;;;;5082854;28;20039;-71
2022/04/13 07:30:34;;;;;;;12.15;8.70;;;14.10;99.90;;;;;;5088051;28;20093;-71
2022/04/13 07:33:01;;;;;;;16.52;8.80;;;14.00;99.90;;;;;;5082741;28;20545;-71
2022/04/13 07:35:28;;;;;;;15.80;8.40;;;14.20;99.90;;;;;;5094908;28;20051;-72
2022/04/13 07:37:54;;;;;;;16.75;8.82;;;14.30;99.90;;;;;;5101456;28;20425;-71
2022/04/13 07:40:19;;;;;;;17.17;8.68;;;14.30;99.90;;;;;;5099581;28;20046;-72
2022/04/13 07:42:48;;;;;;;16.80;9.38;;;14.40;99.90;;;;;;5092562;28;20040;-72
2022/04/13 07:45:14;;;;;;;15.18;8.63;;;14.40;99.90;;;;;;5095241;28;20035;-72
2022/04/13 07:47:40;;;;;;;17.30;9.40;;;14.50;99.90;;;;;;5110694;28;20101;-72
2022/04/13 07:50:08;;;;;;;11.95;8.82;;;14.50;99.90;;;;;;5111283;28;20484;-71
2022/04/13 07:52:35;;;;;;;14.63;8.10;;;14.60;99.90;;;;;;5111483;28;20044;-71
2022/04/13 07:55:01;;;;;;;16.73;8.45;;;14.60;99.90;;;;;;5110392;28;20051;-70
2022/04/13 07:57:26;;;;;;;13.00;7.85;;;14.60;99.90;;;;;;5110353;28;20043;-72
2022/04/13 07:59:52;;;;;;;17.67;8.48;;;14.60;99.90;;;;;;5109902;28;20526;-72
2022/04/13 08:02:20;;;;;;;14.25;8.20;;;14.60;99.90;;;;;;5111287;28;20048;-72
2022/04/13 08:04:46;;;;;;;15.90;8.63;;;14.60;99.90;;;;;;5095538;28;20050;-72
2022/04/13 08:07:13;;;;;;;17.30;8.25;;;14.60;99.90;;;;;;5111291;28;20668;-71
2022/04/13 08:09:39;;;;;;;18.33;8.57;;;14.70;99.90;;;;;;5093132;28;20407;-71
2022/04/13 08:12:05;;;;;;;15.00;8.27;;;14.70;99.90;;;;;;5092961;28;20089;-71
2022/04/13 08:14:30;;;;;;;13.13;8.00;;;14.70;99.90;;;;;;5093039;28;20114;-72
2022/04/13 08:16:56;;;;;;;12.85;7.63;;;14.70;99.90;;;;;;5093118;28;20388;-72
2022/04/13 08:19:23;;;;;;;17.52;8.82;;;14.70;99.90;;;;;;5075887;28;20043;-72
2022/04/13 08:21:48;;;;;;;14.13;7.68;;;14.70;99.90;;;;;;5092725;28;20047;-71
2022/04/13 08:24:17;;;;;;;15.93;9.05;;;14.70;99.90;;;;;;5111470;28;20042;-72
2022/04/13 08:26:44;;;;;;;16.25;8.00;;;14.70;99.90;;;;;;5092966;28;20044;-72
2022/04/13 08:29:10;;;;;;;19.58;9.43;;;14.70;99.90;;;;;;5092575;28;20095;-72
2022/04/13 08:31:35;;;;;;;14.10;8.27;;;14.80;99.90;;;;;;5092858;28;20055;-73
2022/04/13 08:34:01;;;;;;;15.50;8.18;;;14.80;99.90;;;;;;5093017;28;20488;-72
2022/04/13 08:36:26;;;;;;;15.23;8.02;;;14.80;99.90;;;;;;5109439;28;20058;-73
2022/04/13 08:38:52;;;;;;;14.65;9.60;;;14.90;99.90;;;;;;5092492;28;20038;-72
2022/04/13 08:41:44;;;;;;;14.60;8.93;;;14.90;99.90;;;;;;5092862;28;20131;-73
2022/04/13 08:44:15;;;;;;;15.20;9.80;;;14.90;99.90;;;;;;5093133;28;20364;-73
2022/04/13 08:46:41;;;;;;;16.02;8.98;;;14.90;99.90;;;;;;5086892;28;20893;-72
2022/04/13 08:49:09;;;;;;;18.10;9.07;;;15.00;99.90;;;;;;5101156;28;20106;-72
2022/04/13 08:51:36;;;;;;;15.55;9.43;;;15.10;99.90;;;;;;5088533;28;20110;-72
2022/04/13 08:54:17;;;;;;;16.52;9.88;;;15.10;99.90;;;;;;5092591;28;20160;-73
2022/04/13 08:56:51;;;;;;;16.80;8.43;;;15.20;99.90;;;;;;5092941;28;20043;-73
2022/04/13 09:00:18;;;;;;;18.52;8.57;;;15.20;99.90;;;;;;5110396;28;20043;-73
2022/04/13 09:02:47;;;;;;;14.40;8.65;;;15.30;99.90;;;;;;5025159;28;20077;-73
2022/04/13 09:05:16;;;;;;;15.40;8.48;;;15.30;99.90;;;;;;5052029;28;20051;-73
2022/04/13 09:07:42;;;;;;;18.23;9.00;;;15.40;99.90;;;;;;5035066;28;20053;-70
2022/04/13 09:10:16;;;;;;;20.15;8.85;;;15.40;99.90;;;;;;5051317;28;20461;-73
2022/04/13 09:12:43;;;;;;;16.63;8.80;;;15.50;99.90;;;;;;5035127;28;20509;-73
2022/04/13 09:15:11;;;;;;;16.70;9.13;;;15.50;99.90;;;;;;5051736;28;20112;-74
2022/04/13 09:17:37;;;;;;;15.43;7.82;;;15.60;99.90;;;;;;5034887;28;20037;-73
2022/04/13 09:20:03;;;;;;;14.60;8.20;;;15.60;99.90;;;;;;5051155;28;20127;-73
2022/04/13 09:22:31;;;;;;;13.45;7.95;;;15.70;99.90;;;;;;5051219;28;20471;-73
2022/04/13 09:24:58;;;;;;;16.35;8.68;;;15.90;99.90;;;;;;5051591;28;20067;-73
2022/04/13 09:27:24;;;;;;;11.27;7.32;;;15.90;99.90;;;;;;5051342;28;20615;-73
2022/04/13 09:29:50;;;;;;;13.13;8.25;;;15.80;99.90;;;;;;5051162;28;20037;-73
2022/04/13 09:32:18;;;;;;;14.82;6.97;;;15.90;99.90;;;;;;5050521;28;20061;-73
2022/04/13 09:34:43;;;;;;;15.57;7.45;;;15.90;99.90;;;;;;5034277;28;20054;-73
2022/04/13 09:37:10;;;;;;;20.77;7.40;;;15.90;99.90;;;;;;5051094;28;20440;-73
2022/04/13 09:39:36;;;;;;;17.63;7.78;;;16.00;99.90;;;;;;5077078;28;20058;-71
2022/04/13 09:42:04;;;;;;;13.70;6.75;;;16.00;99.90;;;;;;5114104;28;20692;-73
2022/04/13 09:44:32;;;;;;;14.02;7.88;;;16.20;99.90;;;;;;5112940;28;20147;-73
2022/04/13 09:47:12;;;;;;;13.77;7.65;;;16.10;99.90;;;;;;5096225;28;20411;-73
2022/04/13 09:49:45;;;;;;;16.30;7.53;;;16.10;99.90;;;;;;5112571;28;20530;-73
2022/04/13 09:52:11;;;;;;;15.52;8.13;;;16.10;99.90;;;;;;5114216;28;20516;-73
2022/04/13 09:54:45;;;;;;;12.60;7.35;;;16.10;99.90;;;;;;5113086;28;20031;-72
2022/04/13 09:57:21;;;;;;;15.85;7.68;;;16.10;99.90;;;;;;5112744;28;20039;-73
2022/04/13 09:59:56;;;;;;;12.90;7.63;;;16.10;99.90;;;;;;5113502;28;20044;-73
2022/04/13 10:02:42;;;;;;;13.65;7.68;;;16.20;99.90;;;;;;5112428;28;20139;-73
2022/04/13 10:05:15;;;;;;;11.90;7.50;;;16.30;99.90;;;;;;5113842;28;20171;-74
2022/04/13 10:07:41;;;;;;;12.50;7.03;;;16.40;99.90;;;;;;5095552;28;20039;-74
2022/04/13 10:10:24;;;;;;;13.10;7.03;;;16.40;99.90;;;;;;5113434;28;20163;-73
2022/04/13 10:12:51;;;;;;;12.68;6.45;;;16.50;99.90;;;;;;5079448;28;20684;-74
2022/04/13 10:15:16;;;;;;;13.98;7.28;;;16.50;99.90;;;;;;5073651;28;20043;-73
2022/04/13 10:17:42;;;;;;;14.85;7.03;;;16.50;99.90;;;;;;5075377;28;20044;-73
2022/04/13 10:20:08;;;;;;;16.33;7.35;;;16.50;99.90;;;;;;5074728;28;20080;-73
2022/04/13 10:22:34;;;;;;;9.43;4.53;;;16.60;99.90;;;;;;5074574;28;20040;-70
2022/04/13 10:25:20;;;;;;;15.07;6.80;;;16.60;99.90;;;;;;5075028;28;20128;-73
2022/04/13 10:28:20;;;;;;;9.68;6.85;;;16.80;99.90;;;;;;5074826;28;20032;-74
2022/04/13 10:30:45;;;;;;;11.68;6.95;;;16.80;99.90;;;;;;5057545;28;20040;-74
2022/04/13 10:33:13;;;;;;;12.20;7.00;;;16.80;99.90;;;;;;5092839;28;20043;-74
2022/04/13 10:35:43;;;;;;;9.98;6.43;;;16.80;99.90;;;;;;5058033;28;20040;-73
2022/04/13 10:38:09;;;;;;;13.43;6.32;;;16.80;99.90;;;;;;5074919;28;20511;-72
2022/04/13 10:40:39;;;;;;;10.02;5.88;;;16.80;99.90;;;;;;5074486;28;20047;-72
2022/04/13 10:43:06;;;;;;;13.27;5.80;;;16.90;99.90;;;;;;5074626;28;20069;-72
2022/04/13 10:45:33;;;;;;;13.77;5.80;;;17.00;99.90;;;;;;5074902;28;20043;-72
2022/04/13 10:48:05;;;;;;;9.07;5.22;;;17.00;99.90;;;;;;5074979;28;20040;-72
2022/04/13 10:50:54;;;;;;;9.95;5.57;;;17.00;99.90;;;;;;5074300;28;20089;-72
2022/04/13 10:53:29;;;;;;;11.05;5.88;;;17.10;99.90;;;;;;5074527;28;20055;-72
2022/04/13 10:56:05;;;;;;;11.70;5.50;;;17.10;99.90;;;;;;5074739;28;20396;-73
2022/04/13 10:59:02;;;;;;;11.15;5.18;;;17.20;99.90;;;;;;5074341;28;20043;-73
2022/04/13 11:01:31;;;;;;;11.60;5.28;;;17.30;99.90;;;;;;5075553;28;20583;-72
2022/04/13 11:03:57;;;;;;;9.43;4.63;;;17.40;99.90;;;;;;5085566;28;20083;-72
2022/04/13 11:06:24;;;;;;;11.82;5.20;;;17.30;99.90;;;;;;5083058;28;20036;-72
2022/04/13 11:09:26;;;;;;;10.95;5.35;;;17.30;99.90;;;;;;5093951;28;20046;-72
2022/04/13 11:11:56;;;;;;;29.40;6.45;;;17.30;99.90;;;;;;5029597;28;20128;-73
2022/04/13 11:14:23;;;;;;;13.88;5.30;;;17.30;99.90;;;;;;5092392;28;20036;-74
2022/04/13 11:17:04;;;;;;;13.20;5.30;;;17.30;99.90;;;;;;5074181;28;20515;-73
2022/04/13 11:19:30;;;;;;;15.70;6.18;;;17.30;99.90;;;;;;5073725;28;20047;-73
2022/04/13 11:21:59;;;;;;;7.35;5.28;;;17.30;99.90;;;;;;5090913;28;20405;-73
2022/04/13 11:24:33;;;;;;;9.07;5.22;;;17.40;99.90;;;;;;5073945;28;20035;-73
2022/04/13 11:26:59;;;;;;;12.25;6.30;;;17.50;99.90;;;;;;5056835;28;20036;-73
2022/04/13 11:29:32;;;;;;;11.18;5.63;;;17.50;99.90;;;;;;5057125;28;20040;-73
2022/04/13 11:32:01;;;;;;;12.13;5.43;;;17.50;99.90;;;;;;5073803;28;20093;-73
2022/04/13 11:34:36;;;;;;;11.20;5.10;;;17.50;99.90;;;;;;5073855;28;20051;-73
2022/04/13 11:37:04;;;;;;;10.05;5.70;;;17.50;99.90;;;;;;5073747;28;20047;-73
2022/04/13 11:40:03;;;;;;;10.30;5.35;;;17.50;99.90;;;;;;5073410;28;20487;-73
2022/04/13 11:42:48;;;;;;;11.65;6.03;;;17.50;99.90;;;;;;5073690;28;20119;-73
2022/04/13 11:45:18;;;;;;;9.07;5.10;;;17.40;99.90;;;;;;5073556;28;20127;-72
2022/04/13 11:47:47;;;;;;;16.48;5.22;;;17.40;99.90;;;;;;5091641;28;20547;-73
2022/04/13 11:50:14;;;;;;;10.27;5.22;;;17.30;99.90;;;;;;5056395;28;20132;-73
2022/04/13 11:53:10;;;;;;;9.90;5.55;;;17.40;99.90;;;;;;5073467;28;20449;-73
2022/04/13 11:55:42;;;;;;;8.10;5.63;;;17.30;99.90;;;;;;5073366;28;20043;-72
2022/04/13 11:58:08;;;;;;;;;;;17.30;99.90;;;;;;5073662;28;20512;-72
2022/04/13 12:00:50;;;;;;;11.90;6.28;;;17.30;99.90;;;;;;5089735;28;20006;-73
2022/04/13 12:03:16;;;;;;;12.75;6.70;;;17.40;99.90;;;;;;5073057;28;20055;-72
2022/04/13 12:06:00;;;;;;;13.32;7.05;;;17.40;99.90;;;;;;5090199;28;20048;-72
2022/04/13 12:08:31;;;;;;;12.88;7.07;;;17.40;99.90;;;;;;5073081;28;20070;-71
2022/04/13 12:11:00;;;;;;;12.50;6.82;;;17.40;99.90;;;;;;5091330;28;20107;-72
2022/04/13 12:13:32;;;;;;;9.30;6.38;;;17.50;99.90;;;;;;5091442;28;20401;-72
2022/04/13 12:15:59;;;;;;;11.10;6.47;;;17.60;99.90;;;;;;5102505;28;20032;-72
2022/04/13 12:18:25;;;;;;;12.13;6.20;;;17.60;99.90;;;;;;5111486;28;20070;-72
2022/04/13 12:20:53;;;;;;;8.77;5.40;;;17.70;99.90;;;;;;5111499;28;20040;-72
2022/04/13 12:23:23;;;;;;;9.60;5.35;;;17.70;99.90;;;;;;5111233;28;20550;-73
2022/04/13 12:25:52;;;;;;;8.77;4.82;;;17.70;99.90;;;;;;5093095;28;20082;-72
2022/04/13 12:28:19;;;;;;;10.90;5.00;;;17.60;99.90;;;;;;5093145;28;20404;-73
2022/04/13 12:31:00;;;;;;;8.60;4.95;;;17.60;99.90;;;;;;5093023;28;20050;-73
2022/04/13 12:33:27;;;;;;;11.07;4.53;;;17.60;99.90;;;;;;5111229;28;20090;-72
2022/04/13 12:36:01;;;;;;;6.43;3.70;;;17.60;99.90;;;;;;5111323;28;20676;-72
2022/04/13 12:38:55;;;;;;;13.88;3.92;;;17.70;99.90;;;;;;5110352;28;20457;-71